sensor_id;sensor_type;location;lat;lon;timestamp;temperature;humidity
7530;DHT22;3806;52.270;10.544;2023-04-01T00:01:06;11.60;99.90
7530;DHT22;3806;52.270;10.544;2023-04-01T00:03:32;11.60;99.90
7530;DHT22;3806;52.270;10.544;2023-04-01T00:05:59;11.50;99.90
7530;DHT22;3806;52.270;10.544;2023-04-01T00:08:27;11.50;99.90
7530;DHT22;3806;52.270;10.544;2023-04-01T00:10:52;11.50;99.90
7530;DHT22;3806;52.270;10.544;2023-04-01T00:13:18;11.50;99.90
7530;DHT22;3806;52.270;10.544;2023-04-01T00:15:45;11.40;99.90
7530;DHT22;3806;52.270;10.544;2023-04-01T00:18:11;11.50;99.90
7530;DHT22;3806;52.270;10.544;2023-04-01T00:20:38;11.40;99.90
7530;DHT22;3806;52.270;10.544;2023-04-01T00:23:04;11.40;99.90
7530;DHT22;3806;52.270;10.544;2023-04-01T00:25:30;11.30;99.90
7530;DHT22;3806;52.270;10.544;2023-04-01T00:27:56;11.30;99.90
7530;DHT22;3806;52.270;10.544;2023-04-01T00:30:21;11.40;99.90
7530;DHT22;3806;52.270;10.544;2023-04-01T00:32:51;11.30;99.90
7530;DHT22;3806;52.270;10.544;2023-04-01T00:35:17;11.40;99.90
7530;DHT22;3806;52.270;10.544;2023-04-01T00:37:43;11.40;99.90
7530;DHT22;3806;52.270;10.544;2023-04-01T00:42:52;11.40;99.90
7530;DHT22;3806;52.270;10.544;2023-04-01T00:45:32;11.30;99.90
7530;DHT22;3806;52.270;10.544;2023-04-01T00:48:01;11.30;99.90
7530;DHT22;3806;52.270;10.544;2023-04-01T00:50:28;11.30;99.90
7530;DHT22;3806;52.270;10.544;2023-04-01T00:52:54;11.30;99.90
7530;DHT22;3806;52.270;10.544;2023-04-01T00:55:21;11.40;99.90
7530;DHT22;3806;52.270;10.544;2023-04-01T00:57:49;11.40;99.90
7530;DHT22;3806;52.270;10.544;2023-04-01T01:00:16;11.30;99.90
7530;DHT22;3806;52.270;10.544;2023-04-01T01:02:44;11.40;99.90
7530;DHT22;3806;52.270;10.544;2023-04-01T01:05:14;11.40;99.90
7530;DHT22;3806;52.270;10.544;2023-04-01T01:07:54;11.30;99.90
7530;DHT22;3806;52.270;10.544;2023-04-01T01:10:38;11.40;99.90
7530;DHT22;3806;52.270;10.544;2023-04-01T01:13:25;11.40;99.90
7530;DHT22;3806;52.270;10.544;2023-04-01T01:16:04;11.40;99.90
7530;DHT22;3806;52.270;10.544;2023-04-01T01:18:43;11.40;99.90
7530;DHT22;3806;52.270;10.544;2023-04-01T01:21:23;11.50;99.90
7530;DHT22;3806;52.270;10.544;2023-04-01T01:24:17;11.50;99.90
7530;DHT22;3806;52.270;10.544;2023-04-01T01:27:01;11.50;99.90
7530;DHT22;3806;52.270;10.544;2023-04-01T01:29:45;11.50;99.90
7530;DHT22;3806;52.270;10.544;2023-04-01T01:32:54;11.50;99.90
7530;DHT22;3806;52.270;10.544;2023-04-01T01:35:31;11.50;99.90
7530;DHT22;3806;52.270;10.544;2023-04-01T01:38:01;11.40;99.90
7530;DHT22;3806;52.270;10.544;2023-04-01T01:40:29;11.40;99.90
7530;DHT22;3806;52.270;10.544;2023-04-01T01:43:00;11.40;99.90
7530;DHT22;3806;52.270;10.544;2023-04-01T01:45:29;11.20;99.90
7530;DHT22;3806;52.270;10.544;2023-04-01T01:47:56;11.40;99.90
7530;DHT22;3806;52.270;10.544;2023-04-01T01:50:23;11.40;99.90
7530;DHT22;3806;52.270;10.544;2023-04-01T01:52:51;11.40;99.90
7530;DHT22;3806;52.270;10.544;2023-04-01T01:55:32;11.30;99.90
7530;DHT22;3806;52.270;10.544;2023-04-01T01:58:05;11.30;99.90
7530;DHT22;3806;52.270;10.544;2023-04-01T02:00:34;11.30;99.90
7530;DHT22;3806;52.270;10.544;2023-04-01T02:03:00;11.40;99.90
7530;DHT22;3806;52.270;10.544;2023-04-01T02:05:28;11.40;99.90
7530;DHT22;3806;52.270;10.544;2023-04-01T02:08:05;11.30;99.90
7530;DHT22;3806;52.270;10.544;2023-04-01T02:10:35;11.40;99.90
7530;DHT22;3806;52.270;10.544;2023-04-01T02:13:07;11.40;99.90
7530;DHT22;3806;52.270;10.544;2023-04-01T02:15:38;11.30;99.90
7530;DHT22;3806;52.270;10.544;2023-04-01T02:18:06;11.30;99.90
7530;DHT22;3806;52.270;10.544;2023-04-01T02:20:32;11.30;99.90
7530;DHT22;3806;52.270;10.544;2023-04-01T02:22:59;11.20;99.90
7530;DHT22;3806;52.270;10.544;2023-04-01T02:25:29;11.20;99.90
7530;DHT22;3806;52.270;10.544;2023-04-01T02:27:57;11.20;99.90
7530;DHT22;3806;52.270;10.544;2023-04-01T02:30:23;11.20;99.90
7530;DHT22;3806;52.270;10.544;2023-04-01T02:32:50;11.30;99.90
7530;DHT22;3806;52.270;10.544;2023-04-01T02:35:16;11.30;99.90
7530;DHT22;3806;52.270;10.544;2023-04-01T02:37:43;11.30;99.90
7530;DHT22;3806;52.270;10.544;2023-04-01T02:40:12;11.30;99.90
7530;DHT22;3806;52.270;10.544;2023-04-01T02:42:37;11.20;99.90
7530;DHT22;3806;52.270;10.544;2023-04-01T02:45:04;11.20;99.90
7530;DHT22;3806;52.270;10.544;2023-04-01T02:47:30;11.30;99.90
7530;DHT22;3806;52.270;10.544;2023-04-01T02:49:56;11.30;99.90
7530;DHT22;3806;52.270;10.544;2023-04-01T02:52:28;11.30;99.90
7530;DHT22;3806;52.270;10.544;2023-04-01T02:54:54;11.30;99.90
7530;DHT22;3806;52.270;10.544;2023-04-01T02:57:20;11.30;99.90
7530;DHT22;3806;52.270;10.544;2023-04-01T02:59:46;11.30;99.90
7530;DHT22;3806;52.270;10.544;2023-04-01T03:02:11;11.30;99.90
7530;DHT22;3806;52.270;10.544;2023-04-01T03:04:37;11.30;99.90
7530;DHT22;3806;52.270;10.544;2023-04-01T03:07:02;11.30;99.90
7530;DHT22;3806;52.270;10.544;2023-04-01T03:09:28;11.30;99.90
7530;DHT22;3806;52.270;10.544;2023-04-01T03:11:54;11.30;99.90
7530;DHT22;3806;52.270;10.544;2023-04-01T03:14:20;11.30;99.90
7530;DHT22;3806;52.270;10.544;2023-04-01T03:16:45;11.30;99.90
7530;DHT22;3806;52.270;10.544;2023-04-01T03:19:11;11.30;99.90
7530;DHT22;3806;52.270;10.544;2023-04-01T03:21:37;11.20;99.90
7530;DHT22;3806;52.270;10.544;2023-04-01T03:24:02;11.20;99.90
7530;DHT22;3806;52.270;10.544;2023-04-01T03:26:28;11.20;99.90
7530;DHT22;3806;52.270;10.544;2023-04-01T03:28:54;11.20;99.90
7530;DHT22;3806;52.270;10.544;2023-04-01T03:31:20;11.10;99.90
7530;DHT22;3806;52.270;10.544;2023-04-01T03:33:46;11.10;99.90
7530;DHT22;3806;52.270;10.544;2023-04-01T03:36:11;11.10;99.90
7530;DHT22;3806;52.270;10.544;2023-04-01T03:38:39;11.10;99.90
7530;DHT22;3806;52.270;10.544;2023-04-01T03:41:05;11.10;99.90
7530;DHT22;3806;52.270;10.544;2023-04-01T03:43:32;11.10;99.90
7530;DHT22;3806;52.270;10.544;2023-04-01T03:45:57;11.10;99.90
7530;DHT22;3806;52.270;10.544;2023-04-01T03:48:23;11.10;99.90
7530;DHT22;3806;52.270;10.544;2023-04-01T03:50:49;11.10;99.90
7530;DHT22;3806;52.270;10.544;2023-04-01T03:53:14;11.10;99.90
7530;DHT22;3806;52.270;10.544;2023-04-01T03:55:40;11.10;99.90
7530;DHT22;3806;52.270;10.544;2023-04-01T03:58:07;11.10;99.90
7530;DHT22;3806;52.270;10.544;2023-04-01T04:00:32;11.10;99.90
7530;DHT22;3806;52.270;10.544;2023-04-01T04:02:59;11.10;99.90
7530;DHT22;3806;52.270;10.544;2023-04-01T04:05:25;11.10;99.90
7530;DHT22;3806;52.270;10.544;2023-04-01T04:07:51;11.10;99.90
7530;DHT22;3806;52.270;10.544;2023-04-01T04:10:17;11.10;99.90
7530;DHT22;3806;52.270;10.544;2023-04-01T04:12:43;11.10;99.90
7530;DHT22;3806;52.270;10.544;2023-04-01T04:15:09;11.10;99.90
7530;DHT22;3806;52.270;10.544;2023-04-01T04:17:34;11.10;99.90
7530;DHT22;3806;52.270;10.544;2023-04-01T04:20:00;11.10;99.90
7530;DHT22;3806;52.270;10.544;2023-04-01T04:22:26;11.10;99.90
7530;DHT22;3806;52.270;10.544;2023-04-01T04:24:51;11.00;99.90
7530;DHT22;3806;52.270;10.544;2023-04-01T04:27:17;11.00;99.90
7530;DHT22;3806;52.270;10.544;2023-04-01T04:29:43;11.00;99.90
7530;DHT22;3806;52.270;10.544;2023-04-01T04:32:08;11.00;99.90
7530;DHT22;3806;52.270;10.544;2023-04-01T04:34:34;11.00;99.90
7530;DHT22;3806;52.270;10.544;2023-04-01T04:36:59;11.00;99.90
7530;DHT22;3806;52.270;10.544;2023-04-01T04:39:25;11.00;99.90
7530;DHT22;3806;52.270;10.544;2023-04-01T04:41:50;10.90;99.90
7530;DHT22;3806;52.270;10.544;2023-04-01T04:44:16;10.90;99.90
7530;DHT22;3806;52.270;10.544;2023-04-01T04:46:41;10.90;99.90
7530;DHT22;3806;52.270;10.544;2023-04-01T04:49:07;10.80;99.90
7530;DHT22;3806;52.270;10.544;2023-04-01T04:51:33;10.80;99.90
7530;DHT22;3806;52.270;10.544;2023-04-01T04:54:01;10.80;99.90
7530;DHT22;3806;52.270;10.544;2023-04-01T04:56:27;10.80;99.90
7530;DHT22;3806;52.270;10.544;2023-04-01T04:58:52;10.80;99.90
7530;DHT22;3806;52.270;10.544;2023-04-01T05:01:18;10.80;99.90
7530;DHT22;3806;52.270;10.544;2023-04-01T05:03:44;10.80;99.90
7530;DHT22;3806;52.270;10.544;2023-04-01T05:06:12;10.80;99.90
7530;DHT22;3806;52.270;10.544;2023-04-01T05:08:39;10.90;99.90
7530;DHT22;3806;52.270;10.544;2023-04-01T05:11:07;10.80;99.90
7530;DHT22;3806;52.270;10.544;2023-04-01T05:13:35;10.90;99.90
7530;DHT22;3806;52.270;10.544;2023-04-01T05:16:01;10.90;99.90
7530;DHT22;3806;52.270;10.544;2023-04-01T05:18:27;10.90;99.90
7530;DHT22;3806;52.270;10.544;2023-04-01T05:20:53;10.90;99.90
7530;DHT22;3806;52.270;10.544;2023-04-01T05:23:21;10.90;99.90
7530;DHT22;3806;52.270;10.544;2023-04-01T05:25:48;11.00;99.90
7530;DHT22;3806;52.270;10.544;2023-04-01T05:28:14;11.00;99.90
7530;DHT22;3806;52.270;10.544;2023-04-01T05:30:41;11.00;99.90
7530;DHT22;3806;52.270;10.544;2023-04-01T05:33:07;11.00;99.90
7530;DHT22;3806;52.270;10.544;2023-04-01T05:35:33;11.00;99.90
7530;DHT22;3806;52.270;10.544;2023-04-01T05:37:58;11.00;99.90
7530;DHT22;3806;52.270;10.544;2023-04-01T05:40:24;11.00;99.90
7530;DHT22;3806;52.270;10.544;2023-04-01T05:42:50;11.00;99.90
7530;DHT22;3806;52.270;10.544;2023-04-01T05:45:15;11.00;99.90
7530;DHT22;3806;52.270;10.544;2023-04-01T05:47:41;11.10;99.90
7530;DHT22;3806;52.270;10.544;2023-04-01T05:50:09;11.00;99.90
7530;DHT22;3806;52.270;10.544;2023-04-01T05:52:36;11.10;99.90
7530;DHT22;3806;52.270;10.544;2023-04-01T05:55:01;11.00;99.90
7530;DHT22;3806;52.270;10.544;2023-04-01T05:57:27;11.10;99.90
7530;DHT22;3806;52.270;10.544;2023-04-01T05:59:52;11.10;99.90
7530;DHT22;3806;52.270;10.544;2023-04-01T06:02:18;11.10;99.90
7530;DHT22;3806;52.270;10.544;2023-04-01T06:04:44;11.20;99.90
7530;DHT22;3806;52.270;10.544;2023-04-01T06:07:14;11.10;99.90
7530;DHT22;3806;52.270;10.544;2023-04-01T06:09:40;11.20;99.90
7530;DHT22;3806;52.270;10.544;2023-04-01T06:12:18;11.20;99.90
7530;DHT22;3806;52.270;10.544;2023-04-01T06:18:13;11.30;99.90
7530;DHT22;3806;52.270;10.544;2023-04-01T06:21:03;11.30;99.90
7530;DHT22;3806;52.270;10.544;2023-04-01T06:29:01;11.40;99.90
7530;DHT22;3806;52.270;10.544;2023-04-01T06:42:58;11.70;99.90
7530;DHT22;3806;52.270;10.544;2023-04-01T06:46:07;11.80;99.90
7530;DHT22;3806;52.270;10.544;2023-04-01T06:48:50;11.90;99.90
7530;DHT22;3806;52.270;10.544;2023-04-01T06:51:28;12.00;99.90
7530;DHT22;3806;52.270;10.544;2023-04-01T06:56:37;12.20;99.90
7530;DHT22;3806;52.270;10.544;2023-04-01T07:01:38;12.50;99.90
7530;DHT22;3806;52.270;10.544;2023-04-01T07:04:11;12.50;99.90
7530;DHT22;3806;52.270;10.544;2023-04-01T07:06:50;12.60;99.90
7530;DHT22;3806;52.270;10.544;2023-04-01T07:09:20;12.70;99.90
7530;DHT22;3806;52.270;10.544;2023-04-01T07:11:47;12.90;99.90
7530;DHT22;3806;52.270;10.544;2023-04-01T07:14:22;13.10;99.90
7530;DHT22;3806;52.270;10.544;2023-04-01T07:17:02;13.30;99.90
7530;DHT22;3806;52.270;10.544;2023-04-01T07:19:47;13.40;99.90
7530;DHT22;3806;52.270;10.544;2023-04-01T07:25:24;13.50;99.90
7530;DHT22;3806;52.270;10.544;2023-04-01T07:27:53;13.80;99.90
7530;DHT22;3806;52.270;10.544;2023-04-01T07:30:22;14.20;99.90
7530;DHT22;3806;52.270;10.544;2023-04-01T07:33:04;14.60;99.90
7530;DHT22;3806;52.270;10.544;2023-04-01T07:35:38;14.80;99.90
7530;DHT22;3806;52.270;10.544;2023-04-01T07:40:57;15.40;99.90
7530;DHT22;3806;52.270;10.544;2023-04-01T07:49:06;16.60;99.90
7530;DHT22;3806;52.270;10.544;2023-04-01T07:51:51;17.20;99.90
7530;DHT22;3806;52.270;10.544;2023-04-01T07:54:51;17.60;98.70
7530;DHT22;3806;52.270;10.544;2023-04-01T07:57:35;18.10;97.30
7530;DHT22;3806;52.270;10.544;2023-04-01T08:03:19;18.60;94.80
7530;DHT22;3806;52.270;10.544;2023-04-01T08:06:12;18.80;94.20
7530;DHT22;3806;52.270;10.544;2023-04-01T08:08:56;19.00;93.00
7530;DHT22;3806;52.270;10.544;2023-04-01T08:17:03;19.00;91.00
7530;DHT22;3806;52.270;10.544;2023-04-01T08:20:25;18.50;90.90
7530;DHT22;3806;52.270;10.544;2023-04-01T08:22:51;17.90;92.10
7530;DHT22;3806;52.270;10.544;2023-04-01T08:25:24;17.40;93.20
7530;DHT22;3806;52.270;10.544;2023-04-01T08:28:00;16.80;93.70
7530;DHT22;3806;52.270;10.544;2023-04-01T08:30:52;16.40;95.00
7530;DHT22;3806;52.270;10.544;2023-04-01T08:33:26;15.90;96.70
7530;DHT22;3806;52.270;10.544;2023-04-01T08:35:58;15.50;97.70
7530;DHT22;3806;52.270;10.544;2023-04-01T08:38:36;15.20;98.70
7530;DHT22;3806;52.270;10.544;2023-04-01T08:43:55;14.70;99.90
7530;DHT22;3806;52.270;10.544;2023-04-01T08:49:25;14.40;99.90
7530;DHT22;3806;52.270;10.544;2023-04-01T08:58:00;15.00;99.90
7530;DHT22;3806;52.270;10.544;2023-04-01T09:00:30;15.10;99.90
7530;DHT22;3806;52.270;10.544;2023-04-01T09:09:01;15.60;99.90
7530;DHT22;3806;52.270;10.544;2023-04-01T09:23:20;15.50;99.40
7530;DHT22;3806;52.270;10.544;2023-04-01T09:26:34;15.40;98.40
7530;DHT22;3806;52.270;10.544;2023-04-01T09:31:53;15.40;98.20
7530;DHT22;3806;52.270;10.544;2023-04-01T09:34:47;15.80;97.70
7530;DHT22;3806;52.270;10.544;2023-04-01T09:37:49;16.10;96.20
7530;DHT22;3806;52.270;10.544;2023-04-01T09:40:17;16.30;95.20
7530;DHT22;3806;52.270;10.544;2023-04-01T09:49:04;16.00;94.70
7530;DHT22;3806;52.270;10.544;2023-04-01T09:54:36;15.90;95.60
7530;DHT22;3806;52.270;10.544;2023-04-01T09:57:22;15.90;95.90
7530;DHT22;3806;52.270;10.544;2023-04-01T10:03:12;16.10;95.50
7530;DHT22;3806;52.270;10.544;2023-04-01T10:08:50;16.30;94.00
7530;DHT22;3806;52.270;10.544;2023-04-01T10:25:18;16.50;92.80
7530;DHT22;3806;52.270;10.544;2023-04-01T10:36:30;15.70;94.90
7530;DHT22;3806;52.270;10.544;2023-04-01T10:39:29;15.50;95.50
7530;DHT22;3806;52.270;10.544;2023-04-01T10:47:56;15.30;96.80
7530;DHT22;3806;52.270;10.544;2023-04-01T10:53:40;15.00;97.30
7530;DHT22;3806;52.270;10.544;2023-04-01T10:56:33;14.80;97.50
7530;DHT22;3806;52.270;10.544;2023-04-01T11:02:06;14.60;98.10
7530;DHT22;3806;52.270;10.544;2023-04-01T11:14:02;14.40;99.00
7530;DHT22;3806;52.270;10.544;2023-04-01T11:16:56;14.30;99.10
7530;DHT22;3806;52.270;10.544;2023-04-01T11:22:35;14.20;99.00
7530;DHT22;3806;52.270;10.544;2023-04-01T11:33:50;14.00;99.30
7530;DHT22;3806;52.270;10.544;2023-04-01T11:36:42;14.00;99.60
7530;DHT22;3806;52.270;10.544;2023-04-01T11:42:20;14.10;99.90
7530;DHT22;3806;52.270;10.544;2023-04-01T11:45:20;14.10;99.80
7530;DHT22;3806;52.270;10.544;2023-04-01T11:50:43;14.10;99.90
7530;DHT22;3806;52.270;10.544;2023-04-01T11:55:58;14.10;99.90
7530;DHT22;3806;52.270;10.544;2023-04-01T12:04:20;14.20;99.90
7530;DHT22;3806;52.270;10.544;2023-04-01T12:09:56;14.10;99.90
7530;DHT22;3806;52.270;10.544;2023-04-01T12:12:49;14.10;99.90
7530;DHT22;3806;52.270;10.544;2023-04-01T12:15:29;14.10;99.90
7530;DHT22;3806;52.270;10.544;2023-04-01T12:18:58;14.20;99.90
7530;DHT22;3806;52.270;10.544;2023-04-01T12:29:44;14.50;99.90
7530;DHT22;3806;52.270;10.544;2023-04-01T12:51:33;14.70;99.90
7530;DHT22;3806;52.270;10.544;2023-04-01T12:57:33;14.70;99.90
7530;DHT22;3806;52.270;10.544;2023-04-01T13:00:26;14.70;99.90
7530;DHT22;3806;52.270;10.544;2023-04-01T13:03:20;14.60;99.90
7530;DHT22;3806;52.270;10.544;2023-04-01T13:06:31;14.60;99.90
7530;DHT22;3806;52.270;10.544;2023-04-01T13:09:20;14.60;99.90
7530;DHT22;3806;52.270;10.544;2023-04-01T13:17:36;14.20;99.90
7530;DHT22;3806;52.270;10.544;2023-04-01T13:20:20;14.20;99.90
7530;DHT22;3806;52.270;10.544;2023-04-01T13:34:24;14.10;99.90
7530;DHT22;3806;52.270;10.544;2023-04-01T13:42:59;14.10;99.90
7530;DHT22;3806;52.270;10.544;2023-04-01T13:48:55;13.90;99.90
7530;DHT22;3806;52.270;10.544;2023-04-01T13:51:46;13.70;99.90
7530;DHT22;3806;52.270;10.544;2023-04-01T13:54:34;13.50;99.90
7530;DHT22;3806;52.270;10.544;2023-04-01T13:57:48;13.30;99.90
7530;DHT22;3806;52.270;10.544;2023-04-01T14:00:16;13.00;99.90
7530;DHT22;3806;52.270;10.544;2023-04-01T14:02:58;13.00;99.90
7530;DHT22;3806;52.270;10.544;2023-04-01T14:09:00;12.70;99.90
7530;DHT22;3806;52.270;10.544;2023-04-01T14:17:40;12.30;99.90
7530;DHT22;3806;52.270;10.544;2023-04-01T14:20:22;12.30;99.90
7530;DHT22;3806;52.270;10.544;2023-04-01T14:36:50;11.80;99.90
7530;DHT22;3806;52.270;10.544;2023-04-01T14:47:54;11.40;99.90
7530;DHT22;3806;52.270;10.544;2023-04-01T14:50:29;11.20;99.90
7530;DHT22;3806;52.270;10.544;2023-04-01T15:01:08;10.90;99.90
7530;DHT22;3806;52.270;10.544;2023-04-01T15:04:03;10.80;99.90
7530;DHT22;3806;52.270;10.544;2023-04-01T15:09:32;10.80;99.90
7530;DHT22;3806;52.270;10.544;2023-04-01T15:12:30;10.80;99.90
7530;DHT22;3806;52.270;10.544;2023-04-01T15:15:27;10.70;99.90
7530;DHT22;3806;52.270;10.544;2023-04-01T15:18:11;10.60;99.90
7530;DHT22;3806;52.270;10.544;2023-04-01T15:21:03;10.60;99.90
7530;DHT22;3806;52.270;10.544;2023-04-01T15:24:06;10.50;99.90
7530;DHT22;3806;52.270;10.544;2023-04-01T15:29:43;10.40;99.90
7530;DHT22;3806;52.270;10.544;2023-04-01T15:32:37;10.50;99.90
7530;DHT22;3806;52.270;10.544;2023-04-01T15:35:30;10.40;99.90
7530;DHT22;3806;52.270;10.544;2023-04-01T15:41:10;10.40;99.90
7530;DHT22;3806;52.270;10.544;2023-04-01T15:43:47;10.40;99.90
7530;DHT22;3806;52.270;10.544;2023-04-01T15:46:41;10.40;99.90
7530;DHT22;3806;52.270;10.544;2023-04-01T15:52:03;10.50;99.90
7530;DHT22;3806;52.270;10.544;2023-04-01T15:54:48;10.40;99.90
7530;DHT22;3806;52.270;10.544;2023-04-01T16:02:44;10.30;99.90
7530;DHT22;3806;52.270;10.544;2023-04-01T16:08:37;10.20;99.90
7530;DHT22;3806;52.270;10.544;2023-04-01T16:11:19;10.10;99.90
7530;DHT22;3806;52.270;10.544;2023-04-01T16:19:51;10.00;99.90
7530;DHT22;3806;52.270;10.544;2023-04-01T16:22:34;9.90;99.90
7530;DHT22;3806;52.270;10.544;2023-04-01T16:25:20;9.80;99.90
7530;DHT22;3806;52.270;10.544;2023-04-01T16:28:03;9.80;99.90
7530;DHT22;3806;52.270;10.544;2023-04-01T16:30:40;9.70;99.90
7530;DHT22;3806;52.270;10.544;2023-04-01T16:33:20;9.60;99.90
7530;DHT22;3806;52.270;10.544;2023-04-01T16:35:54;9.60;99.90
7530;DHT22;3806;52.270;10.544;2023-04-01T16:41:17;9.50;99.90
7530;DHT22;3806;52.270;10.544;2023-04-01T16:54:47;9.30;99.90
7530;DHT22;3806;52.270;10.544;2023-04-01T16:59:57;9.30;99.90
7530;DHT22;3806;52.270;10.544;2023-04-01T17:02:31;9.10;99.90
7530;DHT22;3806;52.270;10.544;2023-04-01T17:05:13;9.10;99.90
7530;DHT22;3806;52.270;10.544;2023-04-01T17:08:05;9.00;99.90
7530;DHT22;3806;52.270;10.544;2023-04-01T17:16:28;8.90;99.90
7530;DHT22;3806;52.270;10.544;2023-04-01T17:22:04;9.00;99.90
7530;DHT22;3806;52.270;10.544;2023-04-01T17:25:09;8.90;99.90
7530;DHT22;3806;52.270;10.544;2023-04-01T17:27:51;8.80;99.90
7530;DHT22;3806;52.270;10.544;2023-04-01T17:30:42;8.80;99.90
7530;DHT22;3806;52.270;10.544;2023-04-01T17:41:36;8.50;99.90
7530;DHT22;3806;52.270;10.544;2023-04-01T17:44:38;8.50;99.90
7530;DHT22;3806;52.270;10.544;2023-04-01T17:52:47;8.40;99.90
7530;DHT22;3806;52.270;10.544;2023-04-01T17:58:17;8.40;99.90
7530;DHT22;3806;52.270;10.544;2023-04-01T18:01:13;8.40;99.90
7530;DHT22;3806;52.270;10.544;2023-04-01T18:04:34;8.30;99.90
7530;DHT22;3806;52.270;10.544;2023-04-01T18:07:05;8.30;99.90
7530;DHT22;3806;52.270;10.544;2023-04-01T18:12:42;8.20;99.90
7530;DHT22;3806;52.270;10.544;2023-04-01T18:15:18;8.10;99.90
7530;DHT22;3806;52.270;10.544;2023-04-01T18:17:57;8.10;99.90
7530;DHT22;3806;52.270;10.544;2023-04-01T18:20:37;8.10;99.90
7530;DHT22;3806;52.270;10.544;2023-04-01T18:23:20;8.00;99.90
7530;DHT22;3806;52.270;10.544;2023-04-01T18:25:52;8.00;99.90
7530;DHT22;3806;52.270;10.544;2023-04-01T18:34:07;8.00;99.90
7530;DHT22;3806;52.270;10.544;2023-04-01T18:36:41;8.00;99.90
7530;DHT22;3806;52.270;10.544;2023-04-01T18:39:41;8.00;99.90
7530;DHT22;3806;52.270;10.544;2023-04-01T18:45:23;7.90;99.90
7530;DHT22;3806;52.270;10.544;2023-04-01T18:48:30;7.90;99.90
7530;DHT22;3806;52.270;10.544;2023-04-01T18:51:00;7.90;99.90
7530;DHT22;3806;52.270;10.544;2023-04-01T18:53:38;7.90;99.90
7530;DHT22;3806;52.270;10.544;2023-04-01T18:56:55;7.80;99.90
7530;DHT22;3806;52.270;10.544;2023-04-01T18:59:04;7.80;99.90
7530;DHT22;3806;52.270;10.544;2023-04-01T19:01:40;7.70;99.90
7530;DHT22;3806;52.270;10.544;2023-04-01T19:06:58;7.70;99.90
7530;DHT22;3806;52.270;10.544;2023-04-01T19:09:32;7.70;99.90
7530;DHT22;3806;52.270;10.544;2023-04-01T19:20:41;7.70;99.90
7530;DHT22;3806;52.270;10.544;2023-04-01T19:27:14;7.60;99.90
7530;DHT22;3806;52.270;10.544;2023-04-01T19:29:43;7.50;99.90
7530;DHT22;3806;52.270;10.544;2023-04-01T19:32:22;7.50;99.90
7530;DHT22;3806;52.270;10.544;2023-04-01T19:35:06;7.40;99.90
7530;DHT22;3806;52.270;10.544;2023-04-01T19:37:53;7.30;99.90
7530;DHT22;3806;52.270;10.544;2023-04-01T19:40:51;7.30;99.90
7530;DHT22;3806;52.270;10.544;2023-04-01T19:43:43;7.30;99.90
7530;DHT22;3806;52.270;10.544;2023-04-01T19:46:16;7.30;99.90
7530;DHT22;3806;52.270;10.544;2023-04-01T19:49:05;7.20;99.90
7530;DHT22;3806;52.270;10.544;2023-04-01T20:03:13;7.10;99.90
7530;DHT22;3806;52.270;10.544;2023-04-01T20:06:04;7.00;99.90
7530;DHT22;3806;52.270;10.544;2023-04-01T20:17:01;6.70;99.90
7530;DHT22;3806;52.270;10.544;2023-04-01T20:19:40;6.80;99.90
7530;DHT22;3806;52.270;10.544;2023-04-01T20:25:31;6.70;99.90
7530;DHT22;3806;52.270;10.544;2023-04-01T20:30:57;6.70;99.90
7530;DHT22;3806;52.270;10.544;2023-04-01T20:41:52;6.60;99.90
7530;DHT22;3806;52.270;10.544;2023-04-01T20:44:52;6.60;99.90
7530;DHT22;3806;52.270;10.544;2023-04-01T20:50:37;6.50;99.90
7530;DHT22;3806;52.270;10.544;2023-04-01T20:53:20;6.40;99.90
7530;DHT22;3806;52.270;10.544;2023-04-01T20:58:53;6.30;99.90
7530;DHT22;3806;52.270;10.544;2023-04-01T21:01:58;6.30;99.90
7530;DHT22;3806;52.270;10.544;2023-04-01T21:07:46;6.30;99.90
7530;DHT22;3806;52.270;10.544;2023-04-01T21:13:40;6.10;99.90
7530;DHT22;3806;52.270;10.544;2023-04-01T21:16:26;6.10;99.90
7530;DHT22;3806;52.270;10.544;2023-04-01T21:19:03;6.00;99.90
7530;DHT22;3806;52.270;10.544;2023-04-01T21:22:10;6.10;99.90
7530;DHT22;3806;52.270;10.544;2023-04-01T21:24:58;6.00;99.90
7530;DHT22;3806;52.270;10.544;2023-04-01T21:27:45;6.00;99.90
7530;DHT22;3806;52.270;10.544;2023-04-01T21:36:10;5.90;99.90
7530;DHT22;3806;52.270;10.544;2023-04-01T21:47:08;5.90;99.90
7530;DHT22;3806;52.270;10.544;2023-04-01T21:49:51;5.90;99.90
7530;DHT22;3806;52.270;10.544;2023-04-01T21:58:42;6.00;99.90
7530;DHT22;3806;52.270;10.544;2023-04-01T22:01:40;6.00;99.90
7530;DHT22;3806;52.270;10.544;2023-04-01T22:07:20;5.80;99.90
7530;DHT22;3806;52.270;10.544;2023-04-01T22:09:54;5.80;99.90
7530;DHT22;3806;52.270;10.544;2023-04-01T22:12:35;5.80;99.90
7530;DHT22;3806;52.270;10.544;2023-04-01T22:15:27;5.80;99.90
7530;DHT22;3806;52.270;10.544;2023-04-01T22:18:13;5.70;99.90
7530;DHT22;3806;52.270;10.544;2023-04-01T22:21:32;5.70;99.90
7530;DHT22;3806;52.270;10.544;2023-04-01T22:29:58;5.60;99.90
7530;DHT22;3806;52.270;10.544;2023-04-01T22:32:31;5.60;99.90
7530;DHT22;3806;52.270;10.544;2023-04-01T22:41:06;5.60;99.90
7530;DHT22;3806;52.270;10.544;2023-04-01T22:43:43;5.60;99.90
7530;DHT22;3806;52.270;10.544;2023-04-01T22:46:18;5.60;99.90
7530;DHT22;3806;52.270;10.544;2023-04-01T22:48:54;5.60;99.90
7530;DHT22;3806;52.270;10.544;2023-04-01T22:51:48;5.60;99.90
7530;DHT22;3806;52.270;10.544;2023-04-01T22:54:48;5.70;99.90
7530;DHT22;3806;52.270;10.544;2023-04-01T23:00:16;5.50;99.90
7530;DHT22;3806;52.270;10.544;2023-04-01T23:05:57;5.50;99.90
7530;DHT22;3806;52.270;10.544;2023-04-01T23:08:44;5.50;99.90
7530;DHT22;3806;52.270;10.544;2023-04-01T23:11:19;5.50;99.90
7530;DHT22;3806;52.270;10.544;2023-04-01T23:13:52;5.50;99.90
7530;DHT22;3806;52.270;10.544;2023-04-01T23:16:24;5.50;99.90
7530;DHT22;3806;52.270;10.544;2023-04-01T23:19:16;5.40;99.90
7530;DHT22;3806;52.270;10.544;2023-04-01T23:24:35;5.30;99.90
7530;DHT22;3806;52.270;10.544;2023-04-01T23:27:11;5.30;99.90
7530;DHT22;3806;52.270;10.544;2023-04-01T23:29:39;5.20;99.90
7530;DHT22;3806;52.270;10.544;2023-04-01T23:32:14;5.20;99.90
7530;DHT22;3806;52.270;10.544;2023-04-01T23:34:49;5.20;99.90
7530;DHT22;3806;52.270;10.544;2023-04-01T23:37:16;5.20;99.90
7530;DHT22;3806;52.270;10.544;2023-04-01T23:39:45;5.10;99.90
7530;DHT22;3806;52.270;10.544;2023-04-01T23:42:24;5.10;99.90
7530;DHT22;3806;52.270;10.544;2023-04-01T23:44:58;5.10;99.90
7530;DHT22;3806;52.270;10.544;2023-04-01T23:47:38;5.20;99.90
7530;DHT22;3806;52.270;10.544;2023-04-01T23:50:14;5.20;99.90
7530;DHT22;3806;52.270;10.544;2023-04-01T23:52:59;5.20;99.90
7530;DHT22;3806;52.270;10.544;2023-04-01T23:55:30;5.10;99.90
